createdAt,value
2024-04-17T00:00:19.398Z,45.76
2024-04-17T00:01:19.553Z,46.57
2024-04-17T00:02:19.391Z,45.76
2024-04-17T00:03:19.420Z,46.25
2024-04-17T00:04:19.466Z,45.28
2024-04-17T00:05:19.482Z,46.08
2024-04-17T00:06:19.355Z,46.25
2024-04-17T00:07:19.349Z,45.92
2024-04-17T00:08:19.346Z,45.92
2024-04-17T00:09:19.335Z,45.76
2024-04-17T00:10:19.391Z,46.25
2024-04-17T00:11:19.477Z,46.25
2024-04-17T00:12:19.313Z,46.41
2024-04-17T00:13:19.376Z,46.08
2024-04-17T00:14:19.305Z,45.92
2024-04-17T00:15:19.327Z,45.92
2024-04-17T00:16:19.321Z,45.76
2024-04-17T00:17:19.298Z,46.25
2024-04-17T00:18:19.355Z,45.76
2024-04-17T00:19:19.294Z,45.44
2024-04-17T00:20:19.270Z,45.76
2024-04-17T00:21:19.291Z,45.76
2024-04-17T00:22:19.295Z,45.44
2024-04-17T00:23:19.259Z,46.08
2024-04-17T00:24:19.240Z,46.25
2024-04-17T00:25:19.253Z,45.60
2024-04-17T00:26:19.262Z,45.44
2024-04-17T00:27:19.230Z,46.08
2024-04-17T00:28:19.246Z,45.60
2024-04-17T00:29:19.203Z,45.44
2024-04-17T00:30:19.199Z,45.92
2024-04-17T00:31:19.227Z,45.60
2024-04-17T00:32:19.193Z,45.76
2024-04-17T00:33:19.257Z,46.25
2024-04-17T00:34:19.202Z,45.28
2024-04-17T00:35:19.165Z,45.28
2024-04-17T00:36:19.162Z,46.25
2024-04-17T00:37:19.185Z,46.08
2024-04-17T00:38:19.137Z,45.92
2024-04-17T00:39:19.129Z,46.25
2024-04-17T00:40:19.152Z,46.73
2024-04-17T00:41:19.131Z,46.73
2024-04-17T00:42:19.119Z,46.08
2024-04-17T00:43:19.141Z,45.92
2024-04-17T00:44:19.098Z,45.76
2024-04-17T00:45:19.086Z,45.92
2024-04-17T00:46:19.153Z,46.41
2024-04-17T00:47:19.099Z,46.41
2024-04-17T00:48:19.138Z,46.57
2024-04-17T00:49:19.084Z,46.25
2024-04-17T00:50:19.047Z,46.41
2024-04-17T00:51:19.046Z,45.60
2024-04-17T00:52:19.060Z,46.25
2024-04-17T00:53:19.036Z,45.76
2024-04-17T00:54:19.130Z,45.60
2024-04-17T00:55:19.049Z,46.73
2024-04-17T00:56:19.023Z,46.08
2024-04-17T00:57:19.003Z,45.76
2024-04-17T00:58:19.041Z,45.92
2024-04-17T00:59:19.142Z,45.92
2024-04-17T01:00:18.993Z,45.76
2024-04-17T01:01:19.056Z,45.92
2024-04-17T01:02:19.010Z,45.76
2024-04-17T01:03:18.987Z,45.92
2024-04-17T01:04:19.000Z,47.05
2024-04-17T01:05:18.953Z,46.89
2024-04-17T01:06:19.083Z,46.89
2024-04-17T01:07:18.954Z,45.92
2024-04-17T01:08:18.937Z,45.60
2024-04-17T01:09:18.937Z,46.25
2024-04-17T01:10:19.081Z,45.92
2024-04-17T01:11:18.985Z,45.60
2024-04-17T01:12:18.916Z,46.08
2024-04-17T01:13:18.995Z,46.89
2024-04-17T01:14:18.900Z,45.76
2024-04-17T01:15:18.899Z,46.08
2024-04-17T01:16:19.514Z,45.76
2024-04-17T01:17:18.959Z,45.28
2024-04-17T01:18:18.988Z,47.37
2024-04-17T01:19:18.977Z,45.28
2024-04-17T01:20:18.883Z,45.92
2024-04-17T01:21:18.890Z,45.76
2024-04-17T01:22:19.022Z,46.57
2024-04-17T01:23:18.835Z,46.73
2024-04-17T01:24:18.842Z,46.73
2024-04-17T01:25:18.971Z,46.08
2024-04-17T01:26:18.846Z,45.76
2024-04-17T01:27:18.816Z,46.25
2024-04-17T01:28:18.820Z,46.41
2024-04-17T01:29:18.799Z,47.37
2024-04-17T01:30:18.820Z,47.53
2024-04-17T01:31:18.811Z,46.41
2024-04-17T01:32:18.970Z,46.41
2024-04-17T01:33:18.870Z,47.21
2024-04-17T01:34:18.780Z,47.70
2024-04-17T01:35:18.787Z,45.44
2024-04-17T01:36:18.758Z,45.76
2024-04-17T01:37:18.927Z,46.73
2024-04-17T01:38:18.776Z,47.37
2024-04-17T01:39:18.742Z,47.86
2024-04-17T01:40:18.774Z,46.41
2024-04-17T01:41:18.730Z,46.73
2024-04-17T01:42:18.747Z,46.08
2024-04-17T01:43:18.719Z,45.60
2024-04-17T01:44:24.322Z,47.86
2024-04-17T01:45:20.689Z,46.89
2024-04-17T01:46:18.692Z,45.92
2024-04-17T01:47:18.719Z,45.28
2024-04-17T01:48:18.699Z,46.41
2024-04-17T01:49:18.675Z,46.41
2024-04-17T01:50:18.671Z,45.76
2024-04-17T01:51:18.667Z,45.28
2024-04-17T01:52:18.667Z,46.08
2024-04-17T01:53:18.656Z,47.53
2024-04-17T01:54:18.650Z,46.89
2024-04-17T01:55:18.652Z,47.05
2024-04-17T01:56:18.704Z,46.89
2024-04-17T01:57:18.618Z,46.41
2024-04-17T01:58:18.616Z,45.44
2024-04-17T01:59:18.612Z,47.05
2024-04-17T02:00:18.632Z,46.73
2024-04-17T02:01:18.624Z,45.76
2024-04-17T02:02:18.589Z,46.25
2024-04-17T02:03:18.654Z,46.08
2024-04-17T02:04:18.577Z,45.76
2024-04-17T02:05:18.576Z,47.53
2024-04-17T02:06:18.573Z,46.57
2024-04-17T02:07:18.555Z,47.53
2024-04-17T02:08:18.550Z,48.18
2024-04-17T02:09:18.545Z,47.53
2024-04-17T02:10:18.670Z,48.50
2024-04-17T02:11:18.603Z,46.73
2024-04-17T02:12:18.512Z,46.89
2024-04-17T02:13:18.522Z,46.08
2024-04-17T02:14:18.505Z,48.34
2024-04-17T02:15:18.514Z,48.18
2024-04-17T02:16:18.490Z,47.86
2024-04-17T02:17:18.549Z,45.76
2024-04-17T02:18:18.592Z,45.28
2024-04-17T02:19:18.477Z,46.73
2024-04-17T02:20:18.462Z,48.50
2024-04-17T02:21:18.468Z,47.21
2024-04-17T02:22:18.452Z,46.41
2024-04-17T02:23:18.452Z,46.73
2024-04-17T02:24:18.444Z,47.05
2024-04-17T02:25:18.435Z,46.41
2024-04-17T02:26:18.447Z,48.02
2024-04-17T02:27:18.415Z,49.15
2024-04-17T02:28:18.420Z,47.05
2024-04-17T02:29:18.412Z,46.41
2024-04-17T02:30:18.394Z,46.41
2024-04-17T02:31:18.401Z,47.37
2024-04-17T02:32:18.416Z,46.25
2024-04-17T02:33:18.499Z,46.08
2024-04-17T02:34:18.391Z,46.57
2024-04-17T02:35:18.384Z,46.57
2024-04-17T02:36:18.366Z,46.89
2024-04-17T02:37:18.382Z,48.50
2024-04-17T02:38:18.369Z,48.98
2024-04-17T02:39:18.356Z,47.37
2024-04-17T02:40:18.348Z,48.02
2024-04-17T02:41:18.377Z,46.89
2024-04-17T02:42:18.358Z,46.57
2024-04-17T02:43:18.339Z,48.98
2024-04-17T02:44:18.351Z,48.66
2024-04-17T02:45:18.330Z,47.53
2024-04-17T02:46:18.322Z,52.21
2024-04-17T02:47:18.376Z,50.92
2024-04-17T02:48:18.440Z,47.21
2024-04-17T02:49:18.285Z,47.86
2024-04-17T02:50:18.292Z,52.85
2024-04-17T02:51:18.272Z,53.01
2024-04-17T02:52:18.277Z,52.85
2024-04-17T02:53:18.262Z,50.60
2024-04-17T02:54:18.272Z,51.08
2024-04-17T02:55:18.306Z,50.60
2024-04-17T02:56:18.268Z,50.60
2024-04-17T02:57:18.236Z,52.05
2024-04-17T02:58:18.278Z,55.75
2024-04-17T02:59:18.226Z,53.66
2024-04-17T03:00:18.230Z,51.88
2024-04-17T03:01:18.407Z,50.60
2024-04-17T03:02:18.197Z,51.24
2024-04-17T03:03:18.217Z,51.56
2024-04-17T03:04:18.231Z,51.24
2024-04-17T03:05:18.207Z,55.27
2024-04-17T03:06:18.199Z,52.21
2024-04-17T03:07:18.174Z,51.88
2024-04-17T03:08:18.161Z,50.27
2024-04-17T03:09:18.183Z,50.43
2024-04-17T03:10:18.168Z,49.15
2024-04-17T03:11:18.207Z,51.24
2024-04-17T03:12:18.139Z,51.40
2024-04-17T03:13:18.134Z,51.40
2024-04-17T03:14:18.179Z,49.63
2024-04-17T03:15:18.113Z,48.50
2024-04-17T03:16:18.104Z,49.79
2024-04-17T03:17:18.146Z,50.11
2024-04-17T03:18:18.128Z,49.79
2024-04-17T03:19:18.094Z,50.43
2024-04-17T03:20:18.111Z,51.08
2024-04-17T03:21:18.079Z,51.40
2024-04-17T03:22:18.095Z,51.08
2024-04-17T03:23:18.071Z,52.69
2024-04-17T03:24:18.066Z,52.85
2024-04-17T03:25:18.085Z,52.21
2024-04-17T03:26:18.050Z,52.53
2024-04-17T03:27:18.073Z,56.72
2024-04-17T03:28:18.033Z,54.95
2024-04-17T03:29:18.057Z,54.14
2024-04-17T03:30:18.031Z,53.33
2024-04-17T03:31:18.040Z,51.24
2024-04-17T03:32:18.035Z,54.62
2024-04-17T03:33:18.131Z,55.27
2024-04-17T03:34:18.017Z,54.79
2024-04-17T03:35:18.012Z,55.59
2024-04-17T03:36:17.994Z,55.75
2024-04-17T03:37:17.983Z,56.88
2024-04-17T03:38:18.017Z,53.98
2024-04-17T03:39:17.965Z,54.14
2024-04-17T03:40:17.967Z,55.75
2024-04-17T03:41:17.977Z,56.40
2024-04-17T03:42:20.393Z,56.07
2024-04-17T03:43:17.957Z,56.72
2024-04-17T03:44:17.951Z,54.79
2024-04-17T03:45:18.037Z,57.69
2024-04-17T03:46:17.946Z,55.59
2024-04-17T03:47:17.938Z,57.52
2024-04-17T03:48:17.935Z,55.11
2024-04-17T03:49:17.903Z,55.59
2024-04-17T03:50:17.929Z,55.75
2024-04-17T03:51:17.898Z,56.07
2024-04-17T03:52:17.958Z,56.07
2024-04-17T03:53:17.874Z,54.30
2024-04-17T03:54:17.870Z,55.11
2024-04-17T03:55:17.900Z,54.30
2024-04-17T03:56:17.863Z,53.98
2024-04-17T03:57:17.852Z,54.30
2024-04-17T03:58:17.850Z,53.33
2024-04-17T03:59:17.843Z,55.75
2024-04-17T04:00:17.843Z,56.88
2024-04-17T04:01:17.851Z,57.04
2024-04-17T04:02:17.892Z,56.88
2024-04-17T04:03:17.885Z,55.75
2024-04-17T04:04:17.842Z,54.62
2024-04-17T04:05:17.815Z,54.30
2024-04-17T04:06:17.801Z,57.04
2024-04-17T04:07:17.813Z,55.91
2024-04-17T04:08:17.802Z,56.88
2024-04-17T04:09:17.778Z,54.62
2024-04-17T04:10:17.814Z,56.07
2024-04-17T04:11:17.849Z,56.88
2024-04-17T04:12:17.783Z,55.91
2024-04-17T04:13:17.756Z,56.40
2024-04-17T04:14:17.740Z,54.95
2024-04-17T04:15:17.716Z,53.82
2024-04-17T04:16:17.732Z,56.40
2024-04-17T04:17:17.877Z,57.69
2024-04-17T04:18:17.818Z,56.56
2024-04-17T04:19:17.727Z,53.98
2024-04-17T04:20:17.721Z,54.46
2024-04-17T04:21:17.697Z,55.11
2024-04-17T04:22:17.865Z,56.56
2024-04-17T04:23:17.693Z,57.20
2024-04-17T04:24:17.689Z,55.75
2024-04-17T04:25:17.674Z,56.88
2024-04-17T04:26:17.672Z,55.11
2024-04-17T04:27:17.689Z,55.11
2024-04-17T04:28:17.658Z,58.49
2024-04-17T04:29:17.652Z,57.20
2024-04-17T04:30:19.954Z,58.01
2024-04-17T04:31:17.632Z,58.81
2024-04-17T04:32:17.699Z,57.52
2024-04-17T04:33:17.926Z,56.40
2024-04-17T04:34:17.620Z,58.01
2024-04-17T04:35:17.609Z,57.85
2024-04-17T04:36:17.603Z,58.65
2024-04-17T04:37:17.942Z,56.88
2024-04-17T04:38:17.652Z,57.20
2024-04-17T04:39:17.585Z,58.49
2024-04-17T04:40:17.571Z,57.52
2024-04-17T04:41:18.573Z,57.52
2024-04-17T04:42:17.561Z,59.62
2024-04-17T04:43:17.561Z,58.17
2024-04-17T04:44:17.557Z,57.52
2024-04-17T04:45:17.565Z,58.97
2024-04-17T04:46:17.569Z,58.17
2024-04-17T04:47:17.584Z,60.26
2024-04-17T04:48:18.015Z,60.59
2024-04-17T04:49:17.520Z,58.17
2024-04-17T04:50:17.518Z,57.85
2024-04-17T04:51:17.630Z,58.33
2024-04-17T04:52:17.510Z,56.40
2024-04-17T04:53:17.514Z,59.30
2024-04-17T04:54:17.493Z,57.36
2024-04-17T04:55:17.484Z,57.52
2024-04-17T04:56:17.518Z,58.33
2024-04-17T04:57:17.535Z,57.85
2024-04-17T04:58:17.458Z,57.85
2024-04-17T04:59:17.446Z,56.72
2024-04-17T05:00:18.018Z,57.52
2024-04-17T05:01:17.476Z,56.56
2024-04-17T05:02:17.511Z,56.72
2024-04-17T05:03:17.487Z,58.49
2024-04-17T05:04:17.472Z,56.56
2024-04-17T05:05:17.548Z,55.59
2024-04-17T05:06:17.408Z,57.36
2024-04-17T05:07:17.390Z,56.40
2024-04-17T05:08:18.336Z,58.33
2024-04-17T05:09:17.425Z,56.88
2024-04-17T05:10:17.412Z,57.20
2024-04-17T05:11:17.418Z,54.62
2024-04-17T05:12:17.369Z,56.56
2024-04-17T05:13:17.363Z,57.85
2024-04-17T05:14:17.350Z,57.69
2024-04-17T05:15:17.351Z,57.85
2024-04-17T05:16:17.368Z,57.04
2024-04-17T05:17:17.370Z,56.56
2024-04-17T05:18:17.436Z,56.24
2024-04-17T05:19:17.350Z,56.56
2024-04-17T05:20:17.319Z,56.56
2024-04-17T05:21:17.352Z,56.56
2024-04-17T05:22:18.298Z,56.56
2024-04-17T05:23:17.313Z,55.75
2024-04-17T05:24:18.291Z,57.20
2024-04-17T05:25:17.285Z,55.43
2024-04-17T05:26:17.289Z,55.91
2024-04-17T05:27:17.274Z,56.24
2024-04-17T05:28:17.265Z,56.88
2024-04-17T05:29:17.254Z,54.95
2024-04-17T05:30:17.245Z,57.04
2024-04-17T05:31:17.254Z,57.04
2024-04-17T05:32:17.349Z,57.52
2024-04-17T05:33:17.375Z,57.69
2024-04-17T05:34:17.255Z,58.33
2024-04-17T05:35:17.341Z,57.85
2024-04-17T05:36:17.233Z,57.04
2024-04-17T05:37:17.217Z,55.27
2024-04-17T05:38:17.351Z,58.01
2024-04-17T05:39:17.359Z,57.69
2024-04-17T05:40:17.189Z,58.33
2024-04-17T05:41:17.178Z,58.01
2024-04-17T05:42:17.181Z,60.10
2024-04-17T05:43:17.199Z,60.10
2024-04-17T05:44:17.171Z,59.14
2024-04-17T05:45:17.161Z,57.69
2024-04-17T05:46:17.167Z,57.85
2024-04-17T05:47:17.216Z,57.69
2024-04-17T05:48:17.289Z,60.10
2024-04-17T05:49:17.135Z,60.26
2024-04-17T05:50:17.257Z,61.07
2024-04-17T05:51:17.126Z,60.10
2024-04-17T05:52:17.115Z,59.62
2024-04-17T05:53:17.140Z,58.33
2024-04-17T05:54:17.111Z,58.65
2024-04-17T05:55:17.086Z,58.01
2024-04-17T05:56:17.079Z,57.20
2024-04-17T05:57:17.080Z,58.01
2024-04-17T05:58:17.062Z,56.88
2024-04-17T05:59:17.073Z,56.56
2024-04-17T06:00:17.274Z,56.88
2024-04-17T06:01:17.062Z,57.52
2024-04-17T06:02:17.047Z,56.88
2024-04-17T06:03:17.102Z,57.36
2024-04-17T06:04:17.113Z,56.07
2024-04-17T06:05:17.048Z,55.91
2024-04-17T06:06:17.028Z,56.56
2024-04-17T06:07:17.011Z,55.11
2024-04-17T06:08:17.022Z,55.43
2024-04-17T06:09:17.332Z,60.59
2024-04-17T06:10:17.010Z,56.24
2024-04-17T06:11:17.095Z,56.40
2024-04-17T06:12:17.016Z,56.56
2024-04-17T06:13:17.006Z,58.01
2024-04-17T06:14:16.973Z,54.46
2024-04-17T06:15:17.030Z,54.95
2024-04-17T06:16:16.954Z,55.27
2024-04-17T06:17:16.941Z,54.62
2024-04-17T06:18:16.951Z,55.75
2024-04-17T06:19:17.948Z,55.91
2024-04-17T06:20:19.331Z,56.24
2024-04-17T06:21:16.908Z,55.43
2024-04-17T06:22:16.910Z,56.40
2024-04-17T06:23:16.960Z,56.40
2024-04-17T06:24:16.895Z,55.27
2024-04-17T06:25:16.910Z,56.40
2024-04-17T06:26:16.880Z,60.26
2024-04-17T06:27:16.870Z,63.16
2024-04-17T06:28:16.863Z,55.75
2024-04-17T06:29:16.865Z,58.33
2024-04-17T06:30:17.198Z,63.81
2024-04-17T06:31:16.875Z,59.78
2024-04-17T06:32:16.877Z,58.01
2024-04-17T06:33:16.861Z,54.79
2024-04-17T06:34:16.838Z,54.46
2024-04-17T06:35:16.856Z,55.27
2024-04-17T06:36:16.843Z,56.24
2024-04-17T06:37:16.801Z,56.56
2024-04-17T06:38:16.861Z,57.52
2024-04-17T06:39:16.789Z,56.88
2024-04-17T06:40:16.823Z,56.88
2024-04-17T06:41:16.793Z,55.27
2024-04-17T06:42:16.800Z,54.79
2024-04-17T06:43:16.773Z,54.14
2024-04-17T06:44:16.775Z,55.11
2024-04-17T06:45:16.853Z,57.04
2024-04-17T06:46:16.837Z,57.36
2024-04-17T06:47:16.772Z,56.88
2024-04-17T06:48:18.048Z,56.07
2024-04-17T06:49:16.747Z,55.27
2024-04-17T06:50:16.733Z,57.20
2024-04-17T06:51:16.727Z,53.82
2024-04-17T06:52:16.701Z,53.66
2024-04-17T06:53:16.702Z,54.30
2024-04-17T06:54:16.716Z,53.01
2024-04-17T06:55:16.684Z,53.98
2024-04-17T06:56:16.717Z,55.27
2024-04-17T06:57:16.708Z,54.79
2024-04-17T06:58:16.674Z,56.07
2024-04-17T06:59:16.668Z,53.98
2024-04-17T07:00:17.178Z,52.21
2024-04-17T07:01:16.777Z,54.14
2024-04-17T07:02:17.258Z,54.79
2024-04-17T07:03:16.786Z,54.30
2024-04-17T07:04:16.645Z,55.27
2024-04-17T07:05:16.654Z,53.17
2024-04-17T07:06:16.619Z,56.24
2024-04-17T07:07:16.626Z,53.50
2024-04-17T07:08:16.596Z,54.14
2024-04-17T07:09:16.599Z,53.17
2024-04-17T07:10:16.591Z,53.82
2024-04-17T07:11:16.686Z,55.11
2024-04-17T07:12:16.584Z,53.98
2024-04-17T07:13:16.581Z,52.05
2024-04-17T07:14:16.554Z,52.85
2024-04-17T07:15:16.574Z,50.27
2024-04-17T07:16:16.563Z,52.69
2024-04-17T07:17:18.766Z,53.98
2024-04-17T07:18:17.735Z,54.14
2024-04-17T07:19:16.627Z,52.85
2024-04-17T07:20:16.574Z,52.53
2024-04-17T07:21:16.570Z,52.53
2024-04-17T07:22:16.513Z,52.69
2024-04-17T07:23:16.519Z,53.17
2024-04-17T07:24:16.501Z,52.37
2024-04-17T07:25:17.493Z,51.56
2024-04-17T07:26:16.503Z,52.37
2024-04-17T07:27:16.473Z,53.33
2024-04-17T07:28:16.515Z,56.72
2024-04-17T07:29:16.581Z,54.95
2024-04-17T07:30:16.572Z,52.05
2024-04-17T07:31:16.450Z,54.46
2024-04-17T07:32:16.659Z,53.50
2024-04-17T07:33:16.457Z,53.50
2024-04-17T07:34:16.418Z,50.76
2024-04-17T07:35:16.435Z,51.08
2024-04-17T07:36:16.416Z,52.53
2024-04-17T07:37:16.466Z,52.21
2024-04-17T07:38:16.406Z,52.37
2024-04-17T07:39:16.443Z,50.43
2024-04-17T07:40:16.403Z,49.79
2024-04-17T07:41:18.536Z,48.34
2024-04-17T07:42:16.364Z,47.70
2024-04-17T07:43:16.365Z,50.11
2024-04-17T07:44:16.364Z,53.33
2024-04-17T07:45:16.379Z,48.98
2024-04-17T07:46:16.338Z,49.47
2024-04-17T07:47:16.386Z,45.28
2024-04-17T07:48:16.417Z,48.50
2024-04-17T07:49:16.341Z,48.50
2024-04-17T07:50:16.358Z,48.18
2024-04-17T07:51:16.310Z,48.18
2024-04-17T07:52:16.312Z,47.05
2024-04-17T07:53:16.307Z,47.86
2024-04-17T07:54:16.316Z,49.47
2024-04-17T07:55:16.316Z,51.24
2024-04-17T07:56:16.272Z,45.12
2024-04-17T07:57:16.287Z,48.02
2024-04-17T07:58:16.277Z,47.05
2024-04-17T07:59:16.324Z,46.57
2024-04-17T08:00:16.270Z,45.76
2024-04-17T08:01:16.349Z,45.92
2024-04-17T08:02:16.335Z,47.05
2024-04-17T08:03:16.247Z,49.31
2024-04-17T08:04:17.251Z,46.08
2024-04-17T08:05:16.336Z,46.57
2024-04-17T08:06:16.326Z,42.70
2024-04-17T08:07:16.301Z,47.53
2024-04-17T08:08:16.206Z,44.79
2024-04-17T08:09:16.199Z,42.86
2024-04-17T08:10:16.193Z,43.99
2024-04-17T08:11:16.304Z,45.28
2024-04-17T08:12:16.277Z,46.08
2024-04-17T08:13:16.266Z,47.37
2024-04-17T08:14:16.223Z,45.76
2024-04-17T08:15:16.160Z,44.15
2024-04-17T08:16:16.172Z,45.44
2024-04-17T08:17:16.219Z,48.02
2024-04-17T08:18:16.211Z,50.60
2024-04-17T08:19:16.125Z,54.79
2024-04-17T08:20:16.211Z,52.69
2024-04-17T08:21:16.240Z,56.72
2024-04-17T08:22:16.134Z,55.43
2024-04-17T08:23:16.100Z,54.62
2024-04-17T08:24:16.115Z,57.52
2024-04-17T08:25:16.094Z,54.14
2024-04-17T08:26:16.105Z,52.53
2024-04-17T08:27:16.131Z,53.17
2024-04-17T08:28:16.117Z,50.92
2024-04-17T08:29:16.074Z,52.53
2024-04-17T08:30:16.057Z,48.02
2024-04-17T08:31:16.052Z,52.05
2024-04-17T08:32:16.059Z,41.89
2024-04-17T08:33:16.094Z,69.13
2024-04-17T08:34:16.021Z,46.89
2024-04-17T08:35:16.067Z,51.88
2024-04-17T08:36:16.014Z,53.50
2024-04-17T08:37:16.083Z,52.21
2024-04-17T08:38:16.163Z,47.86
2024-04-17T08:39:16.024Z,47.37
2024-04-17T08:40:16.036Z,44.96
2024-04-17T08:41:15.983Z,47.86
2024-04-17T08:42:15.968Z,48.98
2024-04-17T08:43:16.054Z,46.57
2024-04-17T08:44:16.126Z,47.70
2024-04-17T08:45:15.954Z,50.43
2024-04-17T08:46:15.959Z,49.95
2024-04-17T08:47:16.079Z,46.25
2024-04-17T08:48:16.105Z,49.15
2024-04-17T08:49:15.935Z,48.50
2024-04-17T08:50:16.032Z,50.11
2024-04-17T08:51:15.911Z,47.86
2024-04-17T08:52:15.997Z,48.34
2024-04-17T08:53:15.910Z,49.15
2024-04-17T08:54:15.913Z,44.63
2024-04-17T08:55:15.920Z,44.79
2024-04-17T08:56:15.894Z,47.21
2024-04-17T08:57:15.923Z,46.41
2024-04-17T08:58:15.895Z,46.73
2024-04-17T08:59:15.890Z,44.63
2024-04-17T09:00:15.857Z,47.05
2024-04-17T09:01:15.927Z,45.12
2024-04-17T09:02:16.037Z,43.83
2024-04-17T09:03:15.869Z,43.34
2024-04-17T09:04:15.847Z,48.66
2024-04-17T09:05:15.840Z,46.41
2024-04-17T09:06:15.823Z,48.34
2024-04-17T09:07:15.826Z,46.41
2024-04-17T09:08:15.805Z,47.86
2024-04-17T09:09:15.835Z,46.73
2024-04-17T09:10:15.803Z,46.41
2024-04-17T09:11:15.966Z,44.63
2024-04-17T09:12:15.845Z,46.08
2024-04-17T09:13:15.832Z,47.05
2024-04-17T09:14:15.790Z,49.63
2024-04-17T09:15:15.759Z,48.50
2024-04-17T09:16:15.759Z,49.95
2024-04-17T09:17:15.922Z,48.34
2024-04-17T09:18:15.875Z,51.72
2024-04-17T09:19:15.751Z,49.47
2024-04-17T09:20:15.805Z,50.60
2024-04-17T09:21:15.742Z,48.02
2024-04-17T09:22:15.722Z,52.21
2024-04-17T09:23:15.712Z,48.18
2024-04-17T09:24:15.714Z,51.40
2024-04-17T09:25:15.732Z,46.89
2024-04-17T09:26:15.701Z,48.82
2024-04-17T09:27:15.693Z,48.18
2024-04-17T09:28:15.682Z,50.27
2024-04-17T09:29:15.693Z,48.02
2024-04-17T09:30:15.704Z,45.92
2024-04-17T09:31:15.662Z,48.18
2024-04-17T09:32:15.703Z,49.63
2024-04-17T09:33:15.812Z,47.86
2024-04-17T09:34:15.680Z,48.02
2024-04-17T09:35:15.662Z,47.21
2024-04-17T09:36:15.662Z,46.73
2024-04-17T09:37:15.626Z,50.92
2024-04-17T09:38:15.666Z,49.79
2024-04-17T09:39:15.662Z,47.37
2024-04-17T09:40:15.613Z,42.86
2024-04-17T09:41:15.622Z,48.98
2024-04-17T09:42:15.604Z,48.82
2024-04-17T09:43:20.059Z,46.89
2024-04-17T09:44:17.609Z,48.50
2024-04-17T09:45:15.604Z,48.66
2024-04-17T09:46:15.862Z,48.18
2024-04-17T09:47:15.706Z,49.79
2024-04-17T09:48:15.567Z,47.70
2024-04-17T09:49:15.646Z,44.96
2024-04-17T09:50:15.568Z,44.96
2024-04-17T09:51:15.573Z,47.86
2024-04-17T09:52:17.801Z,46.73
2024-04-17T09:53:27.681Z,47.53
2024-04-17T09:54:17.537Z,46.08
2024-04-17T09:55:15.583Z,46.89
2024-04-17T09:56:15.601Z,45.92
2024-04-17T09:57:15.614Z,47.86
2024-04-17T09:58:15.526Z,48.98
2024-04-17T09:59:15.656Z,44.15
2024-04-17T10:00:15.643Z,48.02
2024-04-17T10:01:15.532Z,49.79
2024-04-17T10:02:15.669Z,48.98
2024-04-17T10:03:15.569Z,47.21
2024-04-17T10:04:16.852Z,45.76
2024-04-17T10:05:15.458Z,45.60
2024-04-17T10:06:15.481Z,49.79
2024-04-17T10:07:15.452Z,47.86
2024-04-17T10:08:15.694Z,49.15
2024-04-17T10:09:15.431Z,48.18
2024-04-17T10:10:15.770Z,46.57
2024-04-17T10:11:15.710Z,46.89
2024-04-17T10:12:15.445Z,49.47
2024-04-17T10:13:15.417Z,49.63
2024-04-17T10:14:15.400Z,49.79
2024-04-17T10:15:15.399Z,48.34
2024-04-17T10:16:16.288Z,48.02
2024-04-17T10:17:26.223Z,45.60
2024-04-17T10:18:17.468Z,46.89
2024-04-17T10:19:15.392Z,46.57
2024-04-17T10:20:15.396Z,47.53
2024-04-17T10:21:15.357Z,48.02
2024-04-17T10:22:16.367Z,48.18
2024-04-17T10:23:15.349Z,46.57
2024-04-17T10:24:15.359Z,45.60
2024-04-17T10:25:20.745Z,48.18
2024-04-17T10:26:17.365Z,47.37
2024-04-17T10:27:15.332Z,45.92
2024-04-17T10:28:16.311Z,43.51
2024-04-17T10:29:15.380Z,47.05
2024-04-17T10:30:15.338Z,46.73
2024-04-17T10:31:15.403Z,45.92
2024-04-17T10:32:15.615Z,47.86
2024-04-17T10:33:15.386Z,45.92
2024-04-17T10:34:15.278Z,45.76
2024-04-17T10:35:15.288Z,47.05
2024-04-17T10:36:15.322Z,47.21
2024-04-17T10:37:15.291Z,46.57
2024-04-17T10:38:23.672Z,44.79
2024-04-17T10:39:17.260Z,49.95
2024-04-17T10:40:15.302Z,47.37
2024-04-17T10:41:15.256Z,47.37
2024-04-17T10:42:15.237Z,46.57
2024-04-17T10:43:15.240Z,46.08
2024-04-17T10:44:15.395Z,46.57
2024-04-17T10:45:15.239Z,50.11
2024-04-17T10:46:15.213Z,53.33
2024-04-17T10:47:15.342Z,54.30
2024-04-17T10:48:15.340Z,54.30
2024-04-17T10:49:15.220Z,54.62
2024-04-17T10:50:16.040Z,53.01
2024-04-17T10:51:16.515Z,52.69
2024-04-17T10:52:15.943Z,51.56
2024-04-17T10:53:15.388Z,51.88
2024-04-17T10:54:15.188Z,50.43
2024-04-17T10:55:15.198Z,53.01
2024-04-17T10:56:16.104Z,47.53
2024-04-17T10:57:16.205Z,55.11
2024-04-17T10:58:15.327Z,52.53
2024-04-17T10:59:15.128Z,55.11
2024-04-17T11:00:15.183Z,54.46
2024-04-17T11:01:15.331Z,55.43
2024-04-17T11:02:15.911Z,55.91
2024-04-17T11:03:16.192Z,55.11
2024-04-17T11:04:15.330Z,53.82
2024-04-17T11:05:15.191Z,52.37
2024-04-17T11:06:15.083Z,53.01
2024-04-17T11:07:15.129Z,53.98
2024-04-17T11:08:15.805Z,53.66
2024-04-17T11:09:15.073Z,50.76
2024-04-17T11:10:15.104Z,52.53
2024-04-17T11:11:15.576Z,51.56
2024-04-17T11:12:15.055Z,51.08
2024-04-17T11:13:15.066Z,49.47
2024-04-17T11:14:15.043Z,51.40
2024-04-17T11:15:15.209Z,53.82
2024-04-17T11:16:15.021Z,53.82
2024-04-17T11:17:15.440Z,54.14
2024-04-17T11:18:15.047Z,54.46
2024-04-17T11:19:15.024Z,53.01
2024-04-17T11:20:15.007Z,53.82
2024-04-17T11:21:15.110Z,55.27
2024-04-17T11:22:14.979Z,53.33
2024-04-17T11:23:14.974Z,51.08
2024-04-17T11:24:15.058Z,53.50
2024-04-17T11:25:14.966Z,54.30
2024-04-17T11:26:14.956Z,52.21
2024-04-17T11:27:15.022Z,54.46
2024-04-17T11:28:14.955Z,54.30
2024-04-17T11:29:14.989Z,54.46
2024-04-17T11:30:14.945Z,53.82
2024-04-17T11:31:14.946Z,54.79
2024-04-17T11:32:14.981Z,52.85
2024-04-17T11:33:15.022Z,53.01
2024-04-17T11:34:17.126Z,54.79
2024-04-17T11:35:14.901Z,54.46
2024-04-17T11:36:14.912Z,54.79
2024-04-17T11:37:15.086Z,53.66
2024-04-17T11:38:14.876Z,54.95
2024-04-17T11:39:14.875Z,54.62
2024-04-17T11:40:14.877Z,54.95
2024-04-17T11:41:15.469Z,53.82
2024-04-17T11:42:14.892Z,54.46
2024-04-17T11:43:15.013Z,56.24
2024-04-17T11:44:14.862Z,56.40
2024-04-17T11:45:14.830Z,56.24
2024-04-17T11:46:14.830Z,55.75
2024-04-17T11:47:14.939Z,55.27
2024-04-17T11:48:14.973Z,56.24
2024-04-17T11:49:14.816Z,55.75
2024-04-17T11:50:14.895Z,55.27
2024-04-17T11:51:14.815Z,53.82
2024-04-17T11:52:14.949Z,55.59
2024-04-17T11:53:14.794Z,55.91
2024-04-17T11:54:14.962Z,54.30
2024-04-17T11:55:14.768Z,54.46
2024-04-17T11:56:14.801Z,54.46
2024-04-17T11:57:17.270Z,55.11
2024-04-17T11:58:15.747Z,54.46
2024-04-17T11:59:14.737Z,54.79
2024-04-17T12:00:14.731Z,55.11
2024-04-17T12:01:14.832Z,54.79
2024-04-17T12:02:14.726Z,55.27
2024-04-17T12:03:14.739Z,56.24
2024-04-17T12:04:14.762Z,56.72
2024-04-17T12:05:14.724Z,57.85
2024-04-17T12:06:14.688Z,57.20
2024-04-17T12:07:14.710Z,55.43
2024-04-17T12:08:14.682Z,57.20
2024-04-17T12:09:14.723Z,57.69
2024-04-17T12:10:14.675Z,57.69
2024-04-17T12:11:14.834Z,57.85
2024-04-17T12:12:14.686Z,57.04
2024-04-17T12:13:14.657Z,54.62
2024-04-17T12:14:14.662Z,57.52
2024-04-17T12:15:14.681Z,55.91
2024-04-17T12:16:14.664Z,57.36
2024-04-17T12:17:14.723Z,57.36
2024-04-17T12:18:14.630Z,56.40
2024-04-17T12:19:14.620Z,56.40
2024-04-17T12:20:14.743Z,57.20
2024-04-17T12:21:14.606Z,57.85
2024-04-17T12:22:14.597Z,56.72
2024-04-17T12:23:14.595Z,58.33
2024-04-17T12:24:14.634Z,57.20
2024-04-17T12:25:14.589Z,55.43
2024-04-17T12:26:14.767Z,57.20
2024-04-17T12:27:14.568Z,56.88
2024-04-17T12:28:14.566Z,56.40
2024-04-17T12:29:14.671Z,57.04
2024-04-17T12:30:14.540Z,58.01
2024-04-17T12:31:14.657Z,59.78
2024-04-17T12:32:14.596Z,55.43
2024-04-17T12:33:14.625Z,56.40
2024-04-17T12:34:14.505Z,56.40
2024-04-17T12:35:14.650Z,59.94
2024-04-17T12:36:14.579Z,56.72
2024-04-17T12:37:14.496Z,56.88
2024-04-17T12:38:15.269Z,59.78
2024-04-17T12:39:14.634Z,56.56
2024-04-17T12:40:14.472Z,55.75
2024-04-17T12:41:14.547Z,56.40
2024-04-17T12:42:14.453Z,58.33
2024-04-17T12:43:14.524Z,58.33
2024-04-17T12:44:14.469Z,59.94
2024-04-17T12:45:14.448Z,56.07
2024-04-17T12:46:17.894Z,57.69
2024-04-17T12:47:15.529Z,56.56
2024-04-17T12:48:14.502Z,58.33
2024-04-17T12:49:14.404Z,57.69
2024-04-17T12:50:14.455Z,58.97
2024-04-17T12:51:14.517Z,58.97
2024-04-17T12:52:14.390Z,58.33